Visit the IPS Meteostar Home Page 2IPSM Phoenix Sky Harbor International Airport FORECAST

Phoenix, Arizona

2 miles away at Phoenix Sky Harbor International Airport 2:51 GMT

Weather:

Clear

Wind:

W 15 mph

Temperature:

100 ° F

Pressure:

29.69

Dew Point:

40 ° F

Relative Humidity:

12

Feels Like:

95 ° F

Visibility:

10 miles


Aviation Observations:

KPHX 250251Z 28013KT 10SM CLR 38/04 A2973 RMK AO2 SLP047 T03780044 55006 $ =

National Weather Service Forecast:
Greater Phoenix Area


Visit the IPS Meteostar Home Page